| time (UTC) | temp F | wind direction | speed MPH | gust MPH | rain 1hr in | rain 24hr in | rain mn in | humidity % | barometer mb |
| 20260506131551 | 55 | 127 | 3.0 | 11.0 | 0.00 | 0.00 | 0.00 | 62 | 1016.1 |
| 20260506130046 | 55 | 142 | 5.0 | 13.0 | 0.00 | 0.00 | 0.00 | 66 | 1016.1 |
| 20260506124554 | 54 | 150 | 5.0 | 12.0 | 0.00 | 0.00 | 0.00 | 64 | 1016.1 |
| 20260506123053 | 54 | 171 | 6.0 | 15.0 | 0.00 | 0.00 | 0.00 | 62 | 1016.2 |
| 20260506121553 | 52 | 160 | 5.0 | 11.0 | 0.00 | 0.00 | 0.00 | 62 | 1016.3 |
| 20260506120046 | 54 | 155 | 5.0 | 12.0 | 0.00 | 0.00 | 0.00 | 57 | 1016.3 |
| 20260506114558 | 53 | 198 | 6.0 | 13.0 | 0.00 | 0.00 | 0.00 | 64 | 1016.3 |
| 20260506113045 | 51 | 146 | 3.0 | 6.0 | 0.00 | 0.00 | 0.00 | 61 | 1016.4 |
| 20260506111546 | 53 | 190 | 6.0 | 10.0 | 0.00 | 0.00 | 0.00 | 61 | 1016.5 |
| 20260506110050 | 54 | 148 | 4.0 | 9.0 | 0.00 | 0.00 | 0.00 | 61 | 1016.5 |
| 20260506104545 | 52 | 128 | 7.0 | 14.0 | 0.00 | 0.00 | 0.00 | 64 | 1016.6 |
| 20260506103052 | 51 | 312 | 2.0 | 7.0 | 0.00 | 0.00 | 0.00 | 58 | 1016.6 |
| 20260506101549 | 51 | 132 | 6.0 | 10.0 | 0.00 | 0.00 | 0.00 | 64 | 1016.6 |
| 20260506100050 | 49 | 0 | 2.0 | 9.0 | 0.00 | 0.00 | 0.00 | 65 | 1016.8 |
| 20260506094547 | 50 | 140 | 2.0 | 11.0 | 0.00 | 0.00 | 0.00 | 64 | 1016.8 |
| 20260506093051 | 50 | 174 | 3.0 | 8.0 | 0.00 | 0.00 | 0.00 | 65 | 1017.0 |
| 20260506091552 | 50 | 100 | 3.0 | 7.0 | 0.00 | 0.00 | 0.00 | 68 | 1017.0 |
| 20260506090054 | 48 | 196 | 4.0 | 9.0 | 0.00 | 0.00 | 0.00 | 71 | 1017.3 |
| 20260506084602 | 45 | 0 | 4.0 | 9.0 | 0.00 | 0.00 | 0.00 | 75 | 1017.2 |
| 20260506083050 | 43 | 157 | 4.0 | 9.0 | 0.00 | 0.00 | 0.00 | 79 | 1017.3 |
| 20260506081544 | 43 | 143 | 1.0 | 6.0 | 0.00 | 0.00 | 0.00 | 78 | 1017.3 |
| 20260506073054 | 42 | 74 | 0.0 | 2.0 | 0.00 | 0.00 | 0.00 | 79 | 1017.3 |
| 20260506071553 | 41 | 0 | 0.0 | 2.0 | 0.00 | 0.00 | 0.00 | 81 | 1017.3 |
| 20260506061555 | 38 | 0 | 0.0 | 0.0 | 0.00 | 0.00 | 0.00 | 89 | 1017.4 |
| 20260506050105 | 36 | 344 | 1.0 | 4.0 | 0.00 | 0.00 | 0.00 | 89 | 1017.6 |
| 20260506044551 | 35 | 0 | 0.0 | 2.0 | 0.00 | 0.00 | 0.00 | 89 | 1017.6 |
| 20260506043043 | 35 | 0 | 0.0 | 0.0 | 0.00 | 0.00 | 0.00 | 88 | 1017.5 |
| 20260506041551 | 35 | 0 | 0.0 | 0.0 | 0.00 | 0.00 | 0.00 | 86 | 1017.4 |
| 20260506040100 | 36 | 0 | 0.0 | 1.0 | 0.00 | 0.00 | 0.00 | 85 | 1017.5 |
| 20260506034550 | 36 | 0 | 0.0 | 0.0 | 0.00 | 0.00 | 0.00 | 85 | 1017.5 |
| 20260506033047 | 36 | 0 | 0.0 | 1.0 | 0.00 | 0.00 | 0.00 | 84 | 1017.4 |
| 20260506031552 | 36 | 0 | 0.0 | 2.0 | 0.00 | 0.00 | 0.00 | 84 | 1017.6 |
| 20260506030055 | 36 | 0 | 0.0 | 1.0 | 0.00 | 0.00 | 0.00 | 84 | 1017.6 |
| 20260506024557 | 36 | 332 | 0.0 | 2.0 | 0.00 | 0.00 | 0.00 | 83 | 1017.6 |
| 20260506023050 | 36 | 0 | 0.0 | 2.0 | 0.00 | 0.00 | 0.00 | 83 | 1017.6 |
| 20260506021559 | 36 | 302 | 0.0 | 2.0 | 0.00 | 0.00 | 0.00 | 82 | 1017.8 |
| 20260506020044 | 36 | 0 | 0.0 | 2.0 | 0.00 | 0.00 | 0.00 | 82 | 1017.7 |
| 20260506014551 | 36 | 302 | 0.0 | 1.0 | 0.00 | 0.00 | 0.00 | 81 | 1017.8 |
| 20260506013057 | 37 | 0 | 0.0 | 0.0 | 0.00 | 0.00 | 0.00 | 81 | 1017.9 |
| 20260506011603 | 37 | 0 | 0.0 | 1.0 | 0.00 | 0.00 | 0.00 | 82 | 1018.1 |
| 20260506010050 | 37 | 0 | 0.0 | 2.0 | 0.00 | 0.00 | 0.00 | 81 | 1018.1 |
| 20260506004553 | 36 | 0 | 0.0 | 1.0 | 0.00 | 0.00 | 0.00 | 82 | 1018.1 |
| 20260506003054 | 36 | 0 | 0.0 | 2.0 | 0.00 | 0.00 | 0.00 | 82 | 1018.2 |
| 20260506001552 | 37 | 0 | 0.0 | 0.0 | 0.00 | 0.00 | 0.00 | 82 | 1018.2 |
| 20260506000057 | 37 | 0 | 0.0 | 2.0 | 0.00 | 0.00 | 0.00 | 82 | 1018.3 |
| 20260505234602 | 37 | 0 | 0.0 | 0.0 | 0.00 | 0.00 | 0.00 | 82 | 1018.3 |
| 20260505233053 | 37 | 0 | 0.0 | 0.0 | 0.00 | 0.00 | 0.00 | 81 | 1018.3 |
| 20260505231605 | 37 | 0 | 0.0 | 0.0 | 0.00 | 0.00 | 0.00 | 82 | 1018.4 |
| 20260505230050 | 38 | 0 | 0.0 | 1.0 | 0.00 | 0.00 | 0.00 | 82 | 1018.5 |
| 20260505224544 | 38 | 0 | 0.0 | 0.0 | 0.00 | 0.00 | 0.00 | 81 | 1018.3 |
| 20260505223057 | 38 | 0 | 0.0 | 0.0 | 0.00 | 0.00 | 0.00 | 81 | 1018.3 |
| 20260505221557 | 39 | 0 | 0.0 | 0.0 | 0.00 | 0.00 | 0.00 | 81 | 1018.3 |
| 20260505220052 | 40 | 0 | 0.0 | 2.0 | 0.00 | 0.00 | 0.00 | 81 | 1018.3 |
| 20260505214612 | 40 | 0 | 0.0 | 3.0 | 0.00 | 0.00 | 0.00 | 80 | 1018.4 |
| 20260505213057 | 41 | 48 | 2.0 | 4.0 | 0.00 | 0.00 | 0.00 | 80 | 1018.3 |
| 20260505211545 | 41 | 0 | 1.0 | 3.0 | 0.00 | 0.00 | 0.00 | 79 | 1018.4 |
| 20260505210047 | 41 | 49 | 1.0 | 4.0 | 0.00 | 0.00 | 0.00 | 79 | 1018.4 |
| 20260505204551 | 42 | 0 | 1.0 | 6.0 | 0.00 | 0.00 | 0.00 | 78 | 1018.5 |
| 20260505203053 | 42 | 94 | 1.0 | 9.0 | 0.00 | 0.00 | 0.00 | 77 | 1018.4 |
| 20260505201554 | 42 | 92 | 3.0 | 7.0 | 0.00 | 0.00 | 0.00 | 76 | 1018.3 |
| 20260505200059 | 43 | 102 | 4.0 | 9.0 | 0.00 | 0.00 | 0.00 | 75 | 1018.2 |
| 20260505194559 | 43 | 86 | 3.0 | 6.0 | 0.00 | 0.00 | 0.00 | 75 | 1018.2 |
| 20260505193046 | 43 | 103 | 3.0 | 8.0 | 0.00 | 0.00 | 0.00 | 75 | 1018.1 |
| 20260505191551 | 43 | 102 | 2.0 | 9.0 | 0.00 | 0.00 | 0.00 | 76 | 1018.1 |
| 20260505190047 | 44 | 90 | 3.0 | 9.0 | 0.00 | 0.00 | 0.00 | 75 | 1018.1 |
| 20260505184545 | 44 | 104 | 1.0 | 6.0 | 0.00 | 0.00 | 0.00 | 75 | 1017.9 |
| 20260505183103 | 44 | 102 | 2.0 | 8.0 | 0.00 | 0.00 | 0.00 | 75 | 1018.1 |
| 20260505181551 | 44 | 75 | 2.0 | 10.0 | 0.00 | 0.00 | 0.00 | 74 | 1018.0 |
| 20260505180052 | 45 | 124 | 4.0 | 11.0 | 0.00 | 0.00 | 0.00 | 74 | 1018.0 |
| 20260505174558 | 45 | 105 | 4.0 | 8.0 | 0.00 | 0.00 | 0.00 | 73 | 1017.9 |
| 20260505173051 | 46 | 132 | 2.0 | 10.0 | 0.00 | 0.00 | 0.00 | 73 | 1018.0 |
| 20260505171551 | 46 | 112 | 4.0 | 11.0 | 0.00 | 0.00 | 0.00 | 74 | 1018.0 |
| 20260505170057 | 47 | 111 | 3.0 | 14.0 | 0.00 | 0.00 | 0.00 | 73 | 1017.9 |
| 20260505164551 | 48 | 119 | 1.0 | 10.0 | 0.00 | 0.00 | 0.00 | 72 | 1017.7 |
| 20260505163048 | 49 | 119 | 3.0 | 9.0 | 0.00 | 0.00 | 0.00 | 69 | 1017.7 |
| 20260505161557 | 50 | 111 | 3.0 | 12.0 | 0.00 | 0.00 | 0.00 | 69 | 1017.7 |
| 20260505153059 | 51 | 97 | 5.0 | 13.0 | 0.00 | 0.00 | 0.00 | 72 | 1017.5 |
| 20260505151548 | 49 | 68 | 5.0 | 12.0 | 0.00 | 0.00 | 0.00 | 75 | 1017.5 |
| 20260505140111 | 48 | 125 | 3.0 | 10.0 | 0.00 | 0.00 | 0.00 | 78 | 1017.2 |